Time;durP1;ratioP1;P1;durP2;ratioP2;P2;SDS_P1;SDS_P2;PMS_P1;PMS_P2;Temp;Humidity;BMP_temperature;BMP_pressure;BME280_temperature;BME280_humidity;BME280_pressure;Samples;Min_cycle;Max_cycle;Signal;HPM_P1;HPM_P2
2022/07/01 00:02:05;;;;;;;1.10;0.63;;;14.10;99.90;;;;;;4965545;28;20231;-87
2022/07/01 00:04:31;;;;;;;1.57;1.20;;;14.10;99.90;;;;;;4963879;28;20698;-86
2022/07/01 00:06:57;;;;;;;1.30;0.90;;;14.10;99.90;;;;;;4968235;28;20231;-86
2022/07/01 00:09:23;;;;;;;3.33;0.90;;;14.10;99.90;;;;;;4976011;28;20423;-88
2022/07/01 00:11:50;;;;;;;2.40;0.77;;;14.10;99.90;;;;;;4984891;28;20226;-88
2022/07/01 00:14:15;;;;;;;1.13;0.60;;;14.10;99.90;;;;;;4969478;28;20262;-87
2022/07/01 00:16:41;;;;;;;4.17;1.03;;;14.10;99.90;;;;;;4973528;28;20286;-90
2022/07/01 00:19:07;;;;;;;6.00;1.00;;;14.10;99.90;;;;;;4965443;28;20236;-88
2022/07/01 00:21:33;;;;;;;1.40;0.83;;;14.00;99.90;;;;;;4964204;28;20861;-88
2022/07/01 00:23:59;;;;;;;2.88;0.73;;;14.00;99.90;;;;;;4963601;28;20236;-87
2022/07/01 00:26:24;;;;;;;1.87;1.20;;;14.00;99.90;;;;;;4966244;28;20217;-87
2022/07/01 00:28:50;;;;;;;2.37;1.10;;;14.00;99.90;;;;;;4969761;28;20888;-87
2022/07/01 00:31:15;;;;;;;1.67;0.80;;;13.90;99.90;;;;;;4965148;28;20644;-89
2022/07/01 00:33:41;;;;;;;1.50;0.93;;;13.90;99.90;;;;;;4962003;28;20822;-87
2022/07/01 00:36:06;;;;;;;1.47;0.87;;;13.90;99.90;;;;;;4966108;28;20204;-87
2022/07/01 00:38:32;;;;;;;5.87;1.10;;;13.90;99.90;;;;;;4963616;28;20629;-87
2022/07/01 00:40:58;;;;;;;1.43;1.10;;;13.90;99.90;;;;;;4965221;28;20417;-89
2022/07/01 00:43:24;;;;;;;1.53;1.00;;;13.90;99.90;;;;;;4963006;28;20188;-87
2022/07/01 00:45:51;;;;;;;4.38;1.08;;;13.90;99.90;;;;;;4965851;28;20196;-88
2022/07/01 00:48:18;;;;;;;1.33;1.05;;;13.90;99.90;;;;;;4976687;28;20210;-89
2022/07/01 00:50:44;;;;;;;3.35;1.10;;;13.90;99.90;;;;;;4973916;28;20176;-86
2022/07/01 00:53:10;;;;;;;2.45;1.00;;;13.90;99.90;;;;;;4964187;28;20728;-88
2022/07/01 00:55:36;;;;;;;1.30;0.70;;;13.90;99.90;;;;;;4964473;28;20204;-89
2022/07/01 00:58:02;;;;;;;1.77;0.80;;;13.90;99.90;;;;;;4963375;28;20211;-87
2022/07/01 01:00:27;;;;;;;1.37;0.80;;;13.90;99.90;;;;;;4962616;28;20184;-88
2022/07/01 01:02:54;;;;;;;2.07;1.40;;;13.90;99.90;;;;;;4969291;28;20220;-88
2022/07/01 01:05:21;;;;;;;1.55;0.93;;;13.80;99.90;;;;;;4969967;28;20200;-87
2022/07/01 01:07:49;;;;;;;1.30;1.00;;;13.90;99.90;;;;;;4958427;28;20230;-86
2022/07/01 01:10:15;;;;;;;1.52;1.13;;;13.80;99.90;;;;;;4959258;28;20588;-87
2022/07/01 01:12:41;;;;;;;1.53;0.70;;;13.80;99.90;;;;;;4964133;28;20240;-87
2022/07/01 01:15:07;;;;;;;4.20;1.48;;;13.70;99.90;;;;;;4964482;28;20459;-86
2022/07/01 01:17:33;;;;;;;2.67;1.53;;;13.70;99.90;;;;;;4969218;28;20215;-87
2022/07/01 01:19:59;;;;;;;1.60;1.03;;;13.70;99.90;;;;;;4963719;28;20456;-87
2022/07/01 01:22:24;;;;;;;1.30;0.93;;;13.70;99.90;;;;;;4960468;28;20223;-88
2022/07/01 01:24:50;;;;;;;1.80;1.23;;;13.60;99.90;;;;;;4958387;28;20192;-88
2022/07/01 01:27:16;;;;;;;2.07;0.70;;;;;;;;;;4963422;28;20335;-91
2022/07/01 01:29:42;;;;;;;1.58;0.80;;;13.50;99.90;;;;;;4962945;28;20181;-87
2022/07/01 01:32:08;;;;;;;2.22;0.80;;;13.50;99.90;;;;;;4975550;28;20710;-87
2022/07/01 01:34:36;;;;;;;0.97;0.50;;;13.40;99.90;;;;;;4971046;28;20255;-87
2022/07/01 01:37:03;;;;;;;0.60;0.47;;;13.40;99.90;;;;;;4970345;28;20454;-86
2022/07/01 01:39:29;;;;;;;0.82;0.70;;;13.40;99.90;;;;;;4974039;28;20187;-90
2022/07/01 01:41:55;;;;;;;0.80;0.60;;;13.30;99.90;;;;;;4990250;28;20264;-88
2022/07/01 01:44:20;;;;;;;2.10;0.70;;;13.40;99.90;;;;;;4970043;28;20215;-87
2022/07/01 01:46:46;;;;;;;1.47;1.00;;;13.30;99.90;;;;;;4961641;28;20212;-87
2022/07/01 01:49:12;;;;;;;1.97;0.90;;;13.30;99.90;;;;;;4956276;28;20196;-88
2022/07/01 01:51:37;;;;;;;0.90;0.73;;;13.30;99.90;;;;;;4960984;28;20215;-88
2022/07/01 01:54:04;;;;;;;1.60;1.13;;;13.30;99.90;;;;;;4960903;28;21456;-86
2022/07/01 01:56:29;;;;;;;0.75;0.70;;;13.30;99.90;;;;;;4969176;28;20245;-87
2022/07/01 01:58:56;;;;;;;1.03;0.77;;;13.30;99.90;;;;;;5006204;23;20250;-86
2022/07/01 02:01:22;;;;;;;1.33;0.80;;;13.30;99.90;;;;;;5002894;28;20191;-85
2022/07/01 02:03:49;;;;;;;5.97;0.73;;;13.30;99.90;;;;;;5006124;28;20185;-84
2022/07/01 02:06:16;;;;;;;1.00;0.70;;;13.40;99.90;;;;;;5014063;28;20799;-85
2022/07/01 02:08:41;;;;;;;2.47;0.85;;;13.40;99.90;;;;;;4995094;28;20723;-85
2022/07/01 02:11:08;;;;;;;1.93;1.03;;;13.40;99.90;;;;;;5000084;28;20342;-86
2022/07/01 02:13:34;;;;;;;2.17;0.82;;;13.40;99.90;;;;;;4992732;28;20183;-85
2022/07/01 02:16:00;;;;;;;1.15;0.80;;;13.40;99.90;;;;;;4998072;28;20190;-85
2022/07/01 02:18:26;;;;;;;1.13;0.70;;;13.40;99.90;;;;;;4998290;28;20558;-84
2022/07/01 02:20:52;;;;;;;1.83;0.77;;;14.10;99.90;;;;;;4998754;28;20454;-85
2022/07/01 02:23:18;;;;;;;1.73;0.50;;;13.40;99.90;;;;;;5015788;28;20183;-85
2022/07/01 02:25:44;;;;;;;1.63;1.30;;;13.40;99.90;;;;;;5001188;28;20217;-86
2022/07/01 02:28:10;;;;;;;1.07;0.80;;;13.40;99.90;;;;;;4998519;28;20227;-85
2022/07/01 02:30:36;;;;;;;3.43;1.53;;;13.30;99.90;;;;;;4996897;28;20496;-86
2022/07/01 02:33:11;;;;;;;2.00;1.70;;;13.30;99.90;;;;;;5000571;28;20450;-85
2022/07/01 02:35:39;;;;;;;1.33;1.10;;;13.40;99.90;;;;;;5003531;28;20206;-86
2022/07/01 02:38:05;;;;;;;3.25;1.63;;;13.30;99.90;;;;;;4998825;28;20214;-85
2022/07/01 02:40:33;;;;;;;2.30;1.33;;;13.40;99.90;;;;;;4995893;28;20261;-86
2022/07/01 02:42:58;;;;;;;1.45;1.23;;;13.40;99.90;;;;;;4997787;28;20178;-86
2022/07/01 02:45:25;;;;;;;2.93;1.00;;;13.40;99.90;;;;;;4998824;28;20211;-85
2022/07/01 02:47:50;;;;;;;1.65;1.05;;;13.30;99.90;;;;;;4997311;28;20707;-86
2022/07/01 02:50:18;;;;;;;4.20;1.23;;;13.40;99.90;;;;;;4997660;28;20206;-86
2022/07/01 02:52:44;;;;;;;3.25;1.70;;;13.30;99.90;;;;;;4997304;28;20552;-84
2022/07/01 02:55:12;;;;;;;1.23;0.80;;;13.30;99.90;;;;;;5011922;28;20211;-86
2022/07/01 02:57:38;;;;;;;6.18;1.77;;;13.30;99.90;;;;;;5011848;28;20199;-86
2022/07/01 03:00:06;;;;;;;1.33;1.00;;;13.30;99.90;;;;;;4995237;28;20230;-85
2022/07/01 03:02:32;;;;;;;1.40;0.98;;;13.30;99.90;;;;;;5012509;28;20179;-85
2022/07/01 03:05:00;;;;;;;3.40;0.80;;;13.30;99.90;;;;;;5013132;28;20203;-84
2022/07/01 03:07:26;;;;;;;1.27;1.17;;;13.30;99.90;;;;;;5000156;28;20203;-85
2022/07/01 03:09:52;;;;;;;1.13;0.77;;;13.40;99.90;;;;;;5016359;28;20257;-84
2022/07/01 03:12:34;;;;;;;18.58;1.55;;;13.30;99.90;;;;;;4997865;28;20434;-84
2022/07/01 03:15:03;;;;;;;1.20;0.80;;;13.30;99.90;;;;;;5002231;28;20211;-85
2022/07/01 03:17:31;;;;;;;6.13;3.08;;;13.30;99.90;;;;;;5002606;28;20257;-84
2022/07/01 03:19:57;;;;;;;1.85;0.98;;;13.30;99.90;;;;;;4999519;28;20217;-83
2022/07/01 03:22:25;;;;;;;3.45;0.98;;;13.30;99.90;;;;;;5000140;28;20689;-85
2022/07/01 03:24:51;;;;;;;2.00;1.35;;;13.30;99.90;;;;;;4999904;28;20258;-85
2022/07/01 03:27:18;;;;;;;1.38;1.00;;;13.40;99.90;;;;;;4998005;28;20210;-84
2022/07/01 03:29:44;;;;;;;1.83;1.25;;;13.40;99.90;;;;;;5011437;28;20184;-83
2022/07/01 03:32:10;;;;;;;1.52;1.10;;;13.40;99.90;;;;;;4999450;28;20189;-85
2022/07/01 03:34:37;;;;;;;1.75;1.40;;;13.40;99.90;;;;;;4999445;28;20230;-85
2022/07/01 03:37:07;;;;;;;1.65;1.17;;;13.40;99.90;;;;;;5000147;28;20937;-84
2022/07/01 03:39:34;;;;;;;6.28;1.60;;;13.40;99.90;;;;;;4994381;28;20183;-86
2022/07/01 03:42:01;;;;;;;2.15;1.75;;;13.40;99.90;;;;;;5001769;28;20671;-84
2022/07/01 03:44:27;;;;;;;2.38;1.45;;;13.40;99.90;;;;;;4997127;28;20187;-84
2022/07/01 03:46:52;;;;;;;2.15;1.88;;;13.40;99.90;;;;;;4999040;28;20298;-83
2022/07/01 03:49:18;;;;;;;2.80;2.50;;;13.40;99.90;;;;;;5014665;28;20803;-87
2022/07/01 03:51:44;;;;;;;2.20;1.70;;;13.40;99.90;;;;;;5015704;28;20610;-84
2022/07/01 03:56:53;;;;;;;2.78;2.30;;;13.40;99.90;;;;;;5001005;28;20485;-83
2022/07/01 03:59:19;;;;;;;1.97;1.60;;;13.40;99.90;;;;;;5014760;28;20273;-82
2022/07/01 04:01:44;;;;;;;1.80;1.70;;;13.50;99.90;;;;;;4996672;28;20210;-81
2022/07/01 04:04:10;;;;;;;3.37;2.23;;;13.60;99.90;;;;;;4993972;28;20269;-81
2022/07/01 04:06:36;;;;;;;3.37;2.10;;;13.60;99.90;;;;;;4993287;28;20659;-82
2022/07/01 04:09:02;;;;;;;1.90;1.80;;;13.60;99.90;;;;;;4992634;28;20775;-82
2022/07/01 04:11:27;;;;;;;2.10;1.90;;;13.60;99.90;;;;;;4994299;28;20199;-82
2022/07/01 04:13:53;;;;;;;9.57;2.10;;;13.60;99.90;;;;;;4999527;28;20183;-86
2022/07/01 04:16:19;;;;;;;1.97;1.70;;;13.60;99.90;;;;;;5013181;28;20184;-86
2022/07/01 04:18:46;;;;;;;3.67;1.70;;;13.60;99.90;;;;;;5016675;28;20195;-86
2022/07/01 04:23:56;;;;;;;2.25;1.33;;;13.60;99.90;;;;;;4996546;28;20186;-84
2022/07/01 04:26:25;;;;;;;1.92;1.75;;;13.60;99.90;;;;;;4993478;28;20277;-84
2022/07/01 04:28:53;;;;;;;1.70;1.60;;;13.60;99.90;;;;;;4991999;28;20652;-83
2022/07/01 04:31:19;;;;;;;1.70;1.45;;;13.70;99.90;;;;;;4996438;28;20199;-83
2022/07/01 04:33:45;;;;;;;3.37;2.37;;;13.70;99.90;;;;;;4995113;28;20679;-83
2022/07/01 04:36:11;;;;;;;2.55;2.33;;;13.70;99.90;;;;;;4994375;28;20438;-84
2022/07/01 04:38:36;;;;;;;3.20;2.50;;;13.70;99.90;;;;;;4994914;28;20191;-83
2022/07/01 04:43:46;;;;;;;4.55;2.70;;;13.70;99.90;;;;;;4994348;28;20322;-82
2022/07/01 04:46:11;;;;;;;2.20;2.00;;;13.70;99.90;;;;;;4992690;28;21592;-84
2022/07/01 04:48:37;;;;;;;2.67;2.40;;;13.80;99.90;;;;;;4996535;28;20238;-88
2022/07/01 04:51:02;;;;;;;3.97;2.37;;;13.80;99.90;;;;;;4999630;28;20259;-86
2022/07/01 04:53:28;;;;;;;3.77;2.83;;;13.80;99.90;;;;;;4994202;28;20171;-87
2022/07/01 04:55:53;;;;;;;3.77;2.77;;;13.80;99.90;;;;;;5015854;28;20847;-87
2022/07/01 04:58:19;;;;;;;3.37;3.00;;;13.80;99.90;;;;;;5003179;28;20195;-89
2022/07/01 05:00:44;;;;;;;5.40;3.03;;;13.90;99.90;;;;;;5009716;28;20640;-85
2022/07/01 05:03:10;;;;;;;3.80;2.70;;;13.90;99.90;;;;;;4998536;28;20668;-86
2022/07/01 05:05:35;;;;;;;7.83;3.20;;;13.80;99.90;;;;;;5014302;28;20187;-88
2022/07/01 05:08:04;;;;;;;4.03;3.73;;;13.90;99.90;;;;;;4999655;28;20203;-86
2022/07/01 05:10:30;;;;;;;3.63;3.13;;;13.80;99.90;;;;;;4998996;28;20206;-88
2022/07/01 05:12:56;;;;;;;3.43;3.13;;;13.90;99.90;;;;;;5000329;28;20180;-86
2022/07/01 05:15:21;;;;;;;3.50;3.20;;;13.80;99.90;;;;;;5000471;28;20175;-87
2022/07/01 05:23:16;;;;;;;5.07;4.03;;;13.90;99.90;;;;;;5000965;28;20186;-88
2022/07/01 05:25:41;;;;;;;5.27;4.50;;;13.90;99.90;;;;;;4998656;28;20179;-87
2022/07/01 05:28:11;;;;;;;7.80;5.87;;;13.90;99.90;;;;;;4996756;28;20198;-90
2022/07/01 05:30:36;;;;;;;6.50;5.20;;;13.90;99.90;;;;;;4991856;28;20209;-89
2022/07/01 05:33:02;;;;;;;6.60;5.70;;;13.90;99.90;;;;;;4994226;28;20179;-88
2022/07/01 05:35:28;;;;;;;8.10;5.70;;;13.90;99.90;;;;;;4994703;28;20229;-89
2022/07/01 05:37:53;;;;;;;10.03;5.20;;;13.90;99.90;;;;;;4993793;28;20194;-88
2022/07/01 05:40:22;;;;;;;8.03;5.67;;;13.80;99.90;;;;;;4993163;28;20762;-88
2022/07/01 05:42:47;;;;;;;9.25;5.75;;;13.80;99.90;;;;;;5007642;28;20729;-87
2022/07/01 05:45:13;;;;;;;6.93;5.70;;;13.80;99.90;;;;;;4994605;28;20207;-88
2022/07/01 05:47:38;;;;;;;7.17;5.57;;;13.90;99.90;;;;;;4994926;28;20639;-88
2022/07/01 05:50:06;;;;;;;5.77;5.17;;;14.00;99.90;;;;;;4995075;28;20190;-87
2022/07/01 05:52:32;;;;;;;7.40;6.05;;;14.00;99.90;;;;;;5012370;28;20202;-88
2022/07/01 05:54:57;;;;;;;6.80;5.80;;;14.00;99.90;;;;;;4996034;28;20229;-89
2022/07/01 05:57:23;;;;;;;5.07;4.33;;;14.10;99.90;;;;;;4995606;28;20621;-88
2022/07/01 05:59:48;;;;;;;5.03;3.90;;;14.10;99.90;;;;;;4989853;28;20433;-88
2022/07/01 06:02:14;;;;;;;6.00;4.90;;;14.00;99.90;;;;;;5010420;28;20210;-88
2022/07/01 06:04:41;;;;;;;4.60;4.10;;;14.00;99.90;;;;;;4993099;28;20179;-88
2022/07/01 06:07:07;;;;;;;6.07;3.88;;;13.90;99.90;;;;;;4995786;28;20202;-87
2022/07/01 06:09:32;;;;;;;3.93;2.47;;;13.90;99.90;;;;;;5012178;28;20183;-87
2022/07/01 06:11:58;;;;;;;5.53;3.40;;;13.90;99.90;;;;;;4995038;28;20187;-87
2022/07/01 06:14:23;;;;;;;4.10;3.20;;;13.80;99.90;;;;;;4996396;28;20541;-88
2022/07/01 06:16:49;;;;;;;8.80;4.60;;;13.80;99.90;;;;;;4991536;28;20186;-87
2022/07/01 06:19:14;;;;;;;4.80;4.20;;;13.80;99.90;;;;;;4992741;28;20865;-88
2022/07/01 06:21:40;;;;;;;7.43;5.03;;;13.80;99.90;;;;;;4996721;28;20203;-88
2022/07/01 06:24:05;;;;;;;8.90;5.47;;;13.70;99.90;;;;;;4996348;28;20554;-88
2022/07/01 06:26:31;;;;;;;7.10;5.50;;;13.70;99.90;;;;;;4988140;28;20230;-88
2022/07/01 06:28:56;;;;;;;9.57;5.97;;;13.70;99.90;;;;;;5003468;28;20218;-88
2022/07/01 06:31:23;;;;;;;9.40;6.33;;;14.40;99.90;;;;;;5011070;28;20274;-87
2022/07/01 06:33:49;;;;;;;7.50;6.05;;;13.60;99.90;;;;;;5012254;28;20517;-87
2022/07/01 06:36:14;;;;;;;8.03;5.80;;;13.50;99.90;;;;;;4996017;28;20237;-88
2022/07/01 06:38:40;;;;;;;9.77;7.10;;;13.50;99.90;;;;;;5010876;28;20199;-88
2022/07/01 06:43:49;;;;;;;5.03;4.53;;;14.90;99.90;;;;;;4998258;28;20186;-88
2022/07/01 06:46:15;;;;;;;4.07;3.57;;;14.90;99.90;;;;;;4996176;28;21225;-88
2022/07/01 06:48:40;;;;;;;9.80;3.57;;;13.60;99.90;;;;;;4996227;28;20225;-88
2022/07/01 06:51:06;;;;;;;3.00;2.57;;;13.50;99.90;;;;;;5013909;28;20203;-87
2022/07/01 06:53:32;;;;;;;4.27;3.17;;;13.50;99.90;;;;;;4996358;28;20171;-88
2022/07/01 06:55:57;;;;;;;4.80;2.90;;;13.60;99.90;;;;;;4997452;28;20318;-88
2022/07/01 06:58:23;;;;;;;3.40;2.87;;;13.60;99.90;;;;;;4996471;28;20904;-87
2022/07/01 07:00:48;;;;;;;4.93;2.40;;;13.70;99.90;;;;;;4998660;28;20191;-88
2022/07/01 07:03:14;;;;;;;3.53;2.40;;;13.70;99.90;;;;;;4997839;28;20175;-87
2022/07/01 07:05:40;;;;;;;3.60;2.53;;;13.60;99.90;;;;;;4998823;28;20198;-87
2022/07/01 07:08:05;;;;;;;3.00;2.30;;;13.70;99.90;;;;;;4992474;28;20574;-87
2022/07/01 07:10:31;;;;;;;3.40;3.00;;;13.60;99.90;;;;;;4995064;28;20430;-87
2022/07/01 07:12:56;;;;;;;7.30;5.23;;;13.60;99.90;;;;;;4995236;28;20168;-88
2022/07/01 07:15:22;;;;;;;5.70;3.77;;;13.70;99.90;;;;;;5014184;28;20171;-89
2022/07/01 07:17:48;;;;;;;8.20;2.90;;;13.90;99.90;;;;;;4996507;28;20182;-88
2022/07/01 07:20:13;;;;;;;5.70;2.13;;;14.00;99.90;;;;;;4996911;28;20214;-88
2022/07/01 07:22:39;;;;;;;3.43;3.13;;;14.10;99.90;;;;;;5000145;28;20175;-87
2022/07/01 07:25:05;;;;;;;3.60;2.50;;;14.20;99.90;;;;;;4995484;28;20186;-88
2022/07/01 07:27:30;;;;;;;4.93;2.70;;;14.30;99.90;;;;;;4992992;28;20210;-87
2022/07/01 07:29:56;;;;;;;3.27;2.30;;;14.40;99.90;;;;;;5002612;28;20179;-87
2022/07/01 07:32:21;;;;;;;2.60;2.33;;;14.70;99.90;;;;;;4999247;28;20179;-88
2022/07/01 07:34:47;;;;;;;2.40;2.20;;;14.80;99.90;;;;;;4999215;28;20222;-87
2022/07/01 07:37:13;;;;;;;2.27;2.00;;;14.80;99.90;;;;;;4998934;28;20183;-89
2022/07/01 07:39:43;;;;;;;2.80;1.90;;;14.70;99.90;;;;;;4999642;28;20171;-88
2022/07/01 07:42:09;;;;;;;3.25;2.10;;;14.70;99.90;;;;;;4998339;28;20171;-88
2022/07/01 07:44:34;;;;;;;3.20;2.27;;;14.60;99.90;;;;;;5014479;28;20222;-88
2022/07/01 07:47:00;;;;;;;2.60;2.03;;;14.50;99.90;;;;;;4995902;28;20203;-88
2022/07/01 07:49:26;;;;;;;2.53;2.17;;;14.60;99.90;;;;;;4998360;28;20174;-88
2022/07/01 07:51:52;;;;;;;2.63;2.07;;;14.70;99.90;;;;;;4995990;28;20289;-88
2022/07/01 07:54:18;;;;;;;3.70;2.73;;;14.70;99.90;;;;;;4998266;28;20246;-87
2022/07/01 07:56:43;;;;;;;2.53;2.20;;;14.90;99.90;;;;;;4998160;28;20465;-88
2022/07/01 07:59:09;;;;;;;4.60;2.60;;;14.90;99.90;;;;;;4998756;28;20195;-89
2022/07/01 08:01:34;;;;;;;6.00;2.90;;;15.00;99.90;;;;;;4997026;28;20754;-88
2022/07/01 08:04:00;;;;;;;4.63;1.87;;;14.90;99.90;;;;;;4996264;28;20203;-88
2022/07/01 08:06:26;;;;;;;3.30;2.73;;;16.60;99.90;;;;;;5011465;28;20230;-88
2022/07/01 08:08:51;;;;;;;4.77;2.83;;;15.30;99.90;;;;;;4997135;28;20251;-88
2022/07/01 08:11:17;;;;;;;4.90;2.23;;;15.40;99.90;;;;;;5014716;28;20195;-87
2022/07/01 08:13:43;;;;;;;6.23;3.03;;;15.30;99.90;;;;;;5000173;28;20221;-87
2022/07/01 08:16:09;;;;;;;3.73;3.00;;;15.20;99.90;;;;;;4998615;28;20170;-88
2022/07/01 08:18:35;;;;;;;4.13;2.83;;;15.10;99.90;;;;;;4998716;28;20159;-86
2022/07/01 08:21:00;;;;;;;3.40;3.10;;;15.20;99.90;;;;;;4998420;28;20453;-87
2022/07/01 08:23:26;;;;;;;2.60;2.40;;;15.20;99.90;;;;;;4997080;28;20469;-88
2022/07/01 08:25:52;;;;;;;4.60;2.97;;;15.30;99.90;;;;;;4996603;28;20202;-87
2022/07/01 08:28:18;;;;;;;3.03;2.73;;;15.30;99.90;;;;;;4996125;28;20735;-88
2022/07/01 08:30:44;;;;;;;5.17;2.83;;;15.30;99.90;;;;;;4998853;28;20446;-87
2022/07/01 08:33:10;;;;;;;3.30;2.97;;;15.30;99.90;;;;;;4998408;28;20211;-89
2022/07/01 08:35:36;;;;;;;4.97;2.57;;;15.30;99.90;;;;;;4999942;28;20418;-87
2022/07/01 08:38:03;;;;;;;3.10;2.80;;;15.20;99.90;;;;;;5001252;28;20423;-88
2022/07/01 08:40:30;;;;;;;3.27;2.97;;;15.20;99.90;;;;;;4999007;28;20913;-88
2022/07/01 08:43:01;;;;;;;3.40;2.80;;;15.40;99.90;;;;;;4999984;28;20533;-87
2022/07/01 08:45:28;;;;;;;3.10;2.83;;;15.30;99.90;;;;;;5014914;28;20430;-87
2022/07/01 08:47:57;;;;;;;4.93;3.40;;;15.50;99.90;;;;;;4999318;28;20526;-88
2022/07/01 08:50:25;;;;;;;3.80;3.43;;;15.50;99.90;;;;;;4998653;28;20486;-88
2022/07/01 08:52:51;;;;;;;5.97;2.70;;;15.50;99.90;;;;;;5013802;28;20425;-87
2022/07/01 08:55:17;;;;;;;5.93;2.80;;;15.70;99.90;;;;;;4993697;28;20490;-89
2022/07/01 08:57:43;;;;;;;2.63;2.43;;;15.90;99.90;;;;;;4998608;28;20528;-88
2022/07/01 09:00:09;;;;;;;5.97;3.20;;;15.80;99.90;;;;;;4997630;28;20466;-88
2022/07/01 09:02:54;;;;;;;3.63;2.23;;;15.60;99.90;;;;;;4996404;28;20194;-87
2022/07/01 09:05:22;;;;;;;4.40;2.73;;;15.60;99.90;;;;;;4995198;28;20422;-88
2022/07/01 09:07:48;;;;;;;3.00;2.43;;;15.40;99.90;;;;;;5014212;28;20454;-87
2022/07/01 09:10:19;;;;;;;4.20;2.73;;;15.30;99.90;;;;;;4997157;28;20438;-86
2022/07/01 09:12:48;;;;;;;3.20;2.83;;;15.20;99.90;;;;;;4998982;28;20442;-87
2022/07/01 09:15:25;;;;;;;6.13;2.37;;;15.30;99.90;;;;;;4997251;28;20982;-87
2022/07/01 09:17:56;;;;;;;3.50;2.80;;;15.10;99.90;;;;;;4984522;28;20438;-87
2022/07/01 09:20:27;;;;;;;4.40;2.57;;;15.30;99.90;;;;;;4996725;28;20448;-88
2022/07/01 09:23:00;;;;;;;6.03;3.33;;;15.30;99.90;;;;;;4996533;28;20418;-86
2022/07/01 09:25:31;;;;;;;3.30;3.00;;;15.50;99.90;;;;;;4996606;28;20418;-87
2022/07/01 09:28:15;;;;;;;3.40;2.40;;;15.90;99.90;;;;;;4993953;28;20455;-88
2022/07/01 09:30:43;;;;;;;4.03;2.40;;;16.30;99.90;;;;;;4985509;28;20817;-87
2022/07/01 09:33:15;;;;;;;3.50;1.27;;;16.70;99.90;;;;;;4995729;28;20415;-87
2022/07/01 09:35:42;;;;;;;4.20;2.00;;;17.00;99.90;;;;;;4997393;28;20407;-87
2022/07/01 09:38:12;;;;;;;3.63;2.07;;;16.70;99.90;;;;;;4996302;28;20430;-87
2022/07/01 09:40:57;;;;;;;1.80;1.47;;;16.30;99.90;;;;;;4997836;28;20541;-88
2022/07/01 09:43:30;;;;;;;2.00;1.77;;;15.60;99.90;;;;;;4992843;28;20418;-87
2022/07/01 09:46:02;;;;;;;2.40;1.90;;;15.60;99.90;;;;;;4991417;28;20966;-88
2022/07/01 09:48:34;;;;;;;2.90;2.50;;;15.60;99.90;;;;;;5013859;28;20450;-87
2022/07/01 09:51:00;;;;;;;3.90;2.67;;;15.70;99.90;;;;;;5000390;28;20460;-87
2022/07/01 09:53:26;;;;;;;2.43;2.23;;;16.00;99.90;;;;;;5014116;28;20418;-88
2022/07/01 09:55:52;;;;;;;4.03;2.60;;;15.90;99.90;;;;;;4997019;28;20484;-86
2022/07/01 09:58:18;;;;;;;2.30;2.10;;;16.00;99.90;;;;;;4995700;28;20202;-88
2022/07/01 10:00:44;;;;;;;3.17;1.93;;;16.50;99.90;;;;;;4993439;28;20227;-87
2022/07/01 10:03:10;;;;;;;2.00;1.80;;;16.60;99.90;;;;;;4997160;28;20943;-87
2022/07/01 10:05:48;;;;;;;1.63;1.53;;;16.80;99.90;;;;;;5042285;22;20500;-81
2022/07/01 10:08:52;;;;;;;2.50;1.90;;;16.40;99.90;;;;;;5019564;28;20461;-84
2022/07/01 10:11:36;;;;;;;3.60;1.37;;;16.30;99.90;;;;;;5017603;28;20763;-84
2022/07/01 10:14:07;;;;;;;5.30;2.00;;;16.40;99.90;;;;;;5030040;28;20488;-80
2022/07/01 10:16:34;;;;;;;7.83;3.10;;;16.40;99.90;;;;;;5016852;28;20433;-81
2022/07/01 10:19:25;;;;;;;3.00;1.90;;;16.60;99.90;;;;;;4996921;28;20444;-82
2022/07/01 10:21:56;;;;;;;5.50;2.73;;;16.60;99.90;;;;;;4998335;28;20421;-85
2022/07/01 10:24:23;;;;;;;2.53;2.30;;;16.80;99.90;;;;;;4995746;28;20488;-83
2022/07/01 10:26:48;;;;;;;6.43;1.87;;;16.90;99.90;;;;;;5006487;28;20771;-84
2022/07/01 10:29:33;;;;;;;4.73;2.77;;;17.20;99.90;;;;;;4997349;28;20444;-83
2022/07/01 10:32:01;;;;;;;3.67;1.77;;;19.00;99.90;;;;;;5004873;28;20194;-85
2022/07/01 10:34:38;;;;;;;1.90;1.60;;;19.80;99.90;;;;;;5012793;28;20524;-82
2022/07/01 10:37:09;;;;;;;4.20;1.50;;;20.20;99.90;;;;;;4997911;28;20503;-83
2022/07/01 10:39:53;;;;;;;4.07;2.50;;;20.20;99.90;;;;;;5005302;28;20437;-85
2022/07/01 10:42:19;;;;;;;4.27;3.40;;;20.10;99.90;;;;;;5003907;28;20465;-83
2022/07/01 10:45:04;;;;;;;4.40;3.17;;;19.10;99.90;;;;;;4999349;28;20995;-83
2022/07/01 10:47:30;;;;;;;5.23;3.30;;;19.20;99.90;;;;;;5000718;28;20203;-84
2022/07/01 10:49:58;;;;;;;3.50;2.60;;;18.70;99.90;;;;;;4997418;28;20416;-84
2022/07/01 10:52:24;;;;;;;2.47;2.20;;;19.10;99.90;;;;;;4997693;28;20266;-83
2022/07/01 10:54:53;;;;;;;3.50;2.30;;;18.60;99.90;;;;;;4993311;28;21168;-84
2022/07/01 10:57:31;;;;;;;4.00;2.23;;;19.10;99.90;;;;;;5000308;28;20442;-84
2022/07/01 11:00:19;;;;;;;2.93;2.50;;;19.50;99.90;;;;;;4998277;28;20434;-85
2022/07/01 11:02:45;;;;;;;4.17;2.83;;;20.60;99.90;;;;;;4999492;28;20441;-83
2022/07/01 11:05:14;;;;;;;4.60;2.60;;;20.90;99.90;;;;;;4997989;28;20513;-83
2022/07/01 11:07:45;;;;;;;4.40;1.93;;;20.50;99.90;;;;;;4997296;28;20469;-84
2022/07/01 11:10:14;;;;;;;3.30;2.70;;;20.40;99.90;;;;;;4995855;28;20426;-82
2022/07/01 11:12:41;;;;;;;2.77;2.20;;;19.20;99.90;;;;;;4999192;28;20492;-85
2022/07/01 11:15:10;;;;;;;3.70;2.70;;;19.30;99.90;;;;;;4995360;28;20445;-82
2022/07/01 11:17:42;;;;;;;3.43;2.63;;;18.70;99.90;;;;;;4999246;28;20437;-83
2022/07/01 11:20:08;;;;;;;2.73;2.50;;;17.80;99.90;;;;;;5005610;28;20884;-85
2022/07/01 11:22:35;;;;;;;3.17;2.83;;;17.90;99.90;;;;;;4999585;28;20426;-84
2022/07/01 11:25:03;;;;;;;2.77;2.57;;;17.80;99.90;;;;;;4999170;28;20460;-83
2022/07/01 11:27:30;;;;;;;4.53;2.73;;;18.40;99.90;;;;;;5002821;28;20482;-83
2022/07/01 11:30:08;;;;;;;3.03;2.73;;;18.60;99.90;;;;;;4996431;28;20522;-79
2022/07/01 11:32:36;;;;;;;4.07;2.07;;;19.40;99.90;;;;;;5003832;28;20476;-81
2022/07/01 11:39:21;;;;;;;3.80;1.97;;;19.90;99.90;;;;;;5001923;28;20430;-85
2022/07/01 11:40:35;;;;;;;3.03;2.40;;;21.50;99.90;;;;;;4997733;28;20539;-84
2022/07/01 11:43:01;;;;;;;2.93;2.00;;;21.60;99.90;;;;;;4997514;28;21014;-85
2022/07/01 11:45:27;;;;;;;11.60;3.67;;;22.00;99.90;;;;;;4998883;28;20457;-81
2022/07/01 11:47:53;;;;;;;4.63;2.00;;;22.10;99.90;;;;;;5001030;28;20285;-82
2022/07/01 11:50:20;;;;;;;2.47;2.07;;;22.40;99.90;;;;;;5001239;28;20178;-86
2022/07/01 11:52:46;;;;;;;2.97;2.10;;;22.90;99.90;;;;;;4998267;28;20418;-85
2022/07/01 11:55:12;;;;;;;2.20;2.00;;;21.80;99.90;;;;;;4999694;28;20489;-82
2022/07/01 11:57:37;;;;;;;3.53;1.93;;;21.30;99.90;;;;;;4997334;28;20473;-84
2022/07/01 12:00:11;;;;;;;2.47;1.80;;;21.00;99.90;;;;;;4996451;28;21001;-86
2022/07/01 12:02:37;;;;;;;2.50;1.87;;;20.90;99.90;;;;;;4999566;28;20719;-86
2022/07/01 12:05:04;;;;;;;2.17;1.60;;;21.70;99.90;;;;;;5002283;28;20492;-83
2022/07/01 12:07:31;;;;;;;2.40;1.90;;;22.80;99.90;;;;;;5001118;28;20196;-85
2022/07/01 12:09:57;;;;;;;6.33;2.20;;;23.60;99.90;;;;;;5006120;28;20426;-82
2022/07/01 12:12:25;;;;;;;4.33;2.47;;;23.10;99.90;;;;;;4998927;28;20422;-85
2022/07/01 12:14:58;;;;;;;2.30;1.63;;;22.90;99.90;;;;;;4995475;28;20532;-84
2022/07/01 12:17:26;;;;;;;1.87;1.77;;;22.60;99.90;;;;;;5006226;28;21049;-85
2022/07/01 12:19:53;;;;;;;6.37;2.07;;;22.10;99.90;;;;;;5001068;28;20433;-83
2022/07/01 12:22:24;;;;;;;4.23;2.03;;;21.60;99.90;;;;;;4998616;28;20510;-86
2022/07/01 12:25:04;;;;;;;2.40;1.53;;;22.20;99.90;;;;;;4997350;28;21035;-84
2022/07/01 12:27:33;;;;;;;2.40;1.47;;;22.40;99.90;;;;;;4994267;28;20470;-83
2022/07/01 12:29:59;;;;;;;1.67;1.57;;;22.40;99.90;;;;;;4995529;28;20416;-84
2022/07/01 12:32:27;;;;;;;3.83;1.90;;;22.70;99.90;;;;;;4996631;28;20442;-85
2022/07/01 12:34:58;;;;;;;2.97;2.17;;;22.90;99.90;;;;;;5002041;28;20195;-79
2022/07/01 12:37:32;;;;;;;1.97;1.80;;;23.20;99.90;;;;;;4999894;28;20437;-82
2022/07/01 12:40:06;;;;;;;2.53;1.80;;;22.90;99.90;;;;;;4998655;28;20441;-84
2022/07/01 12:42:33;;;;;;;2.07;1.90;;;23.30;99.90;;;;;;5004837;28;20962;-84
2022/07/01 12:45:01;;;;;;;3.40;1.80;;;24.00;99.90;;;;;;5006615;28;20962;-84
2022/07/01 12:47:28;;;;;;;2.33;1.60;;;25.00;99.90;;;;;;4994326;28;21037;-85
2022/07/01 12:50:21;;;;;;;3.63;2.13;;;25.10;99.90;;;;;;5001257;28;20444;-83
2022/07/01 12:53:17;;;;;;;2.60;1.77;;;24.30;99.90;;;;;;4999667;28;20930;-86
2022/07/01 12:55:52;;;;;;;2.43;1.80;;;23.20;99.90;;;;;;4998985;28;20453;-83
2022/07/01 12:58:19;;;;;;;2.53;1.73;;;22.60;99.90;;;;;;4996556;28;20433;-85
2022/07/01 13:00:48;;;;;;;3.30;1.87;;;22.30;99.90;;;;;;4995194;28;20496;-85
2022/07/01 13:03:14;;;;;;;2.60;1.90;;;21.90;99.90;;;;;;5006313;28;20496;-84
2022/07/01 13:05:40;;;;;;;2.70;1.70;;;22.90;99.90;;;;;;5001599;28;20468;-80
2022/07/01 13:08:08;;;;;;;6.50;1.97;;;22.10;99.90;;;;;;5006063;28;21076;-84
2022/07/01 13:10:33;;;;;;;2.80;1.67;;;22.70;99.90;;;;;;4997048;28;20449;-85